sensor_id;sensor_type;location;lat;lon;timestamp;P1;durP1;ratioP1;P2;durP2;ratioP2
41711;SDS011;27399;51.516;13.670;2022-09-09T00:04:27;10.57;;;2.10;;
41711;SDS011;27399;51.516;13.670;2022-09-09T00:07:13;16.27;;;2.20;;
41711;SDS011;27399;51.516;13.670;2022-09-09T00:09:48;16.85;;;2.05;;
41711;SDS011;27399;51.516;13.670;2022-09-09T00:13:18;5.47;;;1.63;;
41711;SDS011;27399;51.516;13.670;2022-09-09T00:21:33;8.73;;;1.52;;
41711;SDS011;27399;51.516;13.670;2022-09-09T00:26:57;6.70;;;1.98;;
41711;SDS011;27399;51.516;13.670;2022-09-09T00:29:36;2.67;;;1.90;;
41711;SDS011;27399;51.516;13.670;2022-09-09T00:32:28;3.25;;;1.92;;
41711;SDS011;27399;51.516;13.670;2022-09-09T00:35:04;4.38;;;2.28;;
41711;SDS011;27399;51.516;13.670;2022-09-09T00:37:43;7.00;;;2.08;;
41711;SDS011;27399;51.516;13.670;2022-09-09T00:40:34;4.97;;;2.17;;
41711;SDS011;27399;51.516;13.670;2022-09-09T00:43:19;2.95;;;1.98;;
41711;SDS011;27399;51.516;13.670;2022-09-09T00:48:33;6.03;;;1.65;;
41711;SDS011;27399;51.516;13.670;2022-09-09T00:51:14;9.63;;;1.80;;
41711;SDS011;27399;51.516;13.670;2022-09-09T00:54:28;7.75;;;1.60;;
41711;SDS011;27399;51.516;13.670;2022-09-09T00:56:47;4.00;;;1.58;;
41711;SDS011;27399;51.516;13.670;2022-09-09T01:01:50;9.50;;;1.77;;
41711;SDS011;27399;51.516;13.670;2022-09-09T01:04:20;6.10;;;2.13;;
41711;SDS011;27399;51.516;13.670;2022-09-09T01:06:58;9.23;;;2.20;;
41711;SDS011;27399;51.516;13.670;2022-09-09T01:12:14;13.10;;;2.22;;
41711;SDS011;27399;51.516;13.670;2022-09-09T01:14:43;9.20;;;1.75;;
41711;SDS011;27399;51.516;13.670;2022-09-09T01:17:24;10.65;;;1.90;;
41711;SDS011;27399;51.516;13.670;2022-09-09T01:28:10;6.63;;;2.00;;
41711;SDS011;27399;51.516;13.670;2022-09-09T01:30:41;3.75;;;1.52;;
41711;SDS011;27399;51.516;13.670;2022-09-09T01:33:08;3.83;;;1.50;;
41711;SDS011;27399;51.516;13.670;2022-09-09T01:35:55;11.88;;;1.95;;
41711;SDS011;27399;51.516;13.670;2022-09-09T01:38:27;6.13;;;1.55;;
41711;SDS011;27399;51.516;13.670;2022-09-09T01:40:54;8.40;;;2.00;;
41711;SDS011;27399;51.516;13.670;2022-09-09T01:43:20;7.53;;;2.20;;
41711;SDS011;27399;51.516;13.670;2022-09-09T01:45:48;6.65;;;1.77;;
41711;SDS011;27399;51.516;13.670;2022-09-09T01:48:17;4.72;;;1.65;;
41711;SDS011;27399;51.516;13.670;2022-09-09T01:50:44;3.53;;;1.60;;
41711;SDS011;27399;51.516;13.670;2022-09-09T01:53:09;4.50;;;1.70;;
41711;SDS011;27399;51.516;13.670;2022-09-09T01:55:40;6.97;;;2.00;;
41711;SDS011;27399;51.516;13.670;2022-09-09T01:58:26;4.10;;;1.80;;
41711;SDS011;27399;51.516;13.670;2022-09-09T02:01:00;3.13;;;2.00;;
41711;SDS011;27399;51.516;13.670;2022-09-09T02:03:47;10.35;;;2.45;;
41711;SDS011;27399;51.516;13.670;2022-09-09T02:06:25;2.63;;;1.50;;
41711;SDS011;27399;51.516;13.670;2022-09-09T02:09:05;4.68;;;1.80;;
41711;SDS011;27399;51.516;13.670;2022-09-09T02:11:32;4.38;;;1.58;;
41711;SDS011;27399;51.516;13.670;2022-09-09T02:14:02;5.25;;;1.60;;
41711;SDS011;27399;51.516;13.670;2022-09-09T02:21:42;3.63;;;1.30;;
41711;SDS011;27399;51.516;13.670;2022-09-09T02:24:10;9.20;;;1.67;;
41711;SDS011;27399;51.516;13.670;2022-09-09T02:26:40;4.75;;;1.33;;
41711;SDS011;27399;51.516;13.670;2022-09-09T02:29:11;6.28;;;1.40;;
41711;SDS011;27399;51.516;13.670;2022-09-09T02:31:41;10.98;;;1.55;;
41711;SDS011;27399;51.516;13.670;2022-09-09T02:34:09;20.23;;;1.80;;
41711;SDS011;27399;51.516;13.670;2022-09-09T02:36:38;8.13;;;1.75;;
41711;SDS011;27399;51.516;13.670;2022-09-09T02:39:07;8.88;;;1.45;;
41711;SDS011;27399;51.516;13.670;2022-09-09T02:41:36;10.45;;;1.50;;
41711;SDS011;27399;51.516;13.670;2022-09-09T02:44:14;4.15;;;1.77;;
41711;SDS011;27399;51.516;13.670;2022-09-09T02:49:10;7.38;;;1.63;;
41711;SDS011;27399;51.516;13.670;2022-09-09T02:56:50;4.65;;;1.50;;
41711;SDS011;27399;51.516;13.670;2022-09-09T02:59:20;4.55;;;1.67;;
41711;SDS011;27399;51.516;13.670;2022-09-09T03:01:47;5.13;;;1.40;;
41711;SDS011;27399;51.516;13.670;2022-09-09T03:04:12;10.02;;;1.80;;
41711;SDS011;27399;51.516;13.670;2022-09-09T03:06:38;7.95;;;1.80;;
41711;SDS011;27399;51.516;13.670;2022-09-09T03:09:04;2.65;;;1.10;;
41711;SDS011;27399;51.516;13.670;2022-09-09T03:11:30;5.15;;;1.52;;
41711;SDS011;27399;51.516;13.670;2022-09-09T03:13:56;4.53;;;1.50;;
41711;SDS011;27399;51.516;13.670;2022-09-09T03:16:22;7.15;;;1.98;;
41711;SDS011;27399;51.516;13.670;2022-09-09T03:18:48;3.35;;;1.58;;
41711;SDS011;27399;51.516;13.670;2022-09-09T03:21:14;5.57;;;1.40;;
41711;SDS011;27399;51.516;13.670;2022-09-09T03:23:39;3.38;;;1.63;;
41711;SDS011;27399;51.516;13.670;2022-09-09T03:26:05;4.72;;;1.58;;
41711;SDS011;27399;51.516;13.670;2022-09-09T03:28:31;2.60;;;1.52;;
41711;SDS011;27399;51.516;13.670;2022-09-09T03:31:03;6.82;;;1.30;;
41711;SDS011;27399;51.516;13.670;2022-09-09T03:33:30;4.75;;;1.50;;
41711;SDS011;27399;51.516;13.670;2022-09-09T03:35:56;5.05;;;1.55;;
41711;SDS011;27399;51.516;13.670;2022-09-09T03:38:23;4.47;;;1.73;;
41711;SDS011;27399;51.516;13.670;2022-09-09T03:40:53;2.78;;;1.65;;
41711;SDS011;27399;51.516;13.670;2022-09-09T03:45:49;4.40;;;1.33;;
41711;SDS011;27399;51.516;13.670;2022-09-09T03:48:15;7.40;;;1.55;;
41711;SDS011;27399;51.516;13.670;2022-09-09T03:50:51;6.75;;;2.03;;
41711;SDS011;27399;51.516;13.670;2022-09-09T03:53:19;8.35;;;1.70;;
41711;SDS011;27399;51.516;13.670;2022-09-09T03:55:47;15.95;;;1.55;;
41711;SDS011;27399;51.516;13.670;2022-09-09T03:58:15;8.32;;;1.58;;
41711;SDS011;27399;51.516;13.670;2022-09-09T04:00:43;5.07;;;1.50;;
41711;SDS011;27399;51.516;13.670;2022-09-09T04:06:13;3.22;;;1.50;;
41711;SDS011;27399;51.516;13.670;2022-09-09T04:08:40;6.50;;;1.70;;
41711;SDS011;27399;51.516;13.670;2022-09-09T04:11:06;3.42;;;1.20;;
41711;SDS011;27399;51.516;13.670;2022-09-09T04:13:35;8.77;;;1.73;;
41711;SDS011;27399;51.516;13.670;2022-09-09T04:16:05;3.85;;;1.23;;
41711;SDS011;27399;51.516;13.670;2022-09-09T04:18:31;6.97;;;1.20;;
41711;SDS011;27399;51.516;13.670;2022-09-09T04:20:58;6.80;;;1.33;;
41711;SDS011;27399;51.516;13.670;2022-09-09T04:23:24;5.22;;;1.10;;
41711;SDS011;27399;51.516;13.670;2022-09-09T04:25:53;4.70;;;1.23;;
41711;SDS011;27399;51.516;13.670;2022-09-09T04:28:24;14.65;;;2.03;;
41711;SDS011;27399;51.516;13.670;2022-09-09T04:30:51;9.63;;;1.55;;
41711;SDS011;27399;51.516;13.670;2022-09-09T04:33:17;7.20;;;1.60;;
41711;SDS011;27399;51.516;13.670;2022-09-09T04:35:47;6.20;;;1.20;;
41711;SDS011;27399;51.516;13.670;2022-09-09T04:38:15;10.57;;;1.65;;
41711;SDS011;27399;51.516;13.670;2022-09-09T04:40:42;4.03;;;1.35;;
41711;SDS011;27399;51.516;13.670;2022-09-09T04:43:09;2.88;;;1.13;;
41711;SDS011;27399;51.516;13.670;2022-09-09T04:45:35;4.22;;;1.23;;
41711;SDS011;27399;51.516;13.670;2022-09-09T04:48:01;4.20;;;1.80;;
41711;SDS011;27399;51.516;13.670;2022-09-09T04:50:27;5.47;;;1.40;;
41711;SDS011;27399;51.516;13.670;2022-09-09T04:52:53;9.60;;;1.42;;
41711;SDS011;27399;51.516;13.670;2022-09-09T04:55:19;6.00;;;1.40;;
41711;SDS011;27399;51.516;13.670;2022-09-09T04:57:45;3.42;;;1.25;;
41711;SDS011;27399;51.516;13.670;2022-09-09T05:00:11;4.80;;;1.50;;
41711;SDS011;27399;51.516;13.670;2022-09-09T05:02:38;6.65;;;1.30;;
41711;SDS011;27399;51.516;13.670;2022-09-09T05:05:04;4.10;;;1.10;;
41711;SDS011;27399;51.516;13.670;2022-09-09T05:07:31;3.05;;;1.45;;
41711;SDS011;27399;51.516;13.670;2022-09-09T05:09:56;1.70;;;1.05;;
41711;SDS011;27399;51.516;13.670;2022-09-09T05:12:23;2.67;;;1.23;;
41711;SDS011;27399;51.516;13.670;2022-09-09T05:14:53;5.95;;;1.33;;
41711;SDS011;27399;51.516;13.670;2022-09-09T05:17:22;4.00;;;1.55;;
41711;SDS011;27399;51.516;13.670;2022-09-09T05:19:48;10.80;;;1.20;;
41711;SDS011;27399;51.516;13.670;2022-09-09T05:22:18;3.03;;;1.25;;
41711;SDS011;27399;51.516;13.670;2022-09-09T05:24:45;4.32;;;1.20;;
41711;SDS011;27399;51.516;13.670;2022-09-09T05:27:11;7.15;;;1.20;;
41711;SDS011;27399;51.516;13.670;2022-09-09T05:29:37;6.60;;;1.20;;
41711;SDS011;27399;51.516;13.670;2022-09-09T05:32:04;9.60;;;1.25;;
41711;SDS011;27399;51.516;13.670;2022-09-09T05:34:30;2.25;;;1.10;;
41711;SDS011;27399;51.516;13.670;2022-09-09T05:36:55;10.15;;;1.52;;
41711;SDS011;27399;51.516;13.670;2022-09-09T05:39:21;4.82;;;1.40;;
41711;SDS011;27399;51.516;13.670;2022-09-09T05:41:47;7.28;;;1.55;;
41711;SDS011;27399;51.516;13.670;2022-09-09T05:44:13;4.35;;;1.10;;
41711;SDS011;27399;51.516;13.670;2022-09-09T05:46:38;7.95;;;2.10;;
41711;SDS011;27399;51.516;13.670;2022-09-09T05:49:04;14.60;;;1.52;;
41711;SDS011;27399;51.516;13.670;2022-09-09T05:51:31;1.88;;;1.20;;
41711;SDS011;27399;51.516;13.670;2022-09-09T05:53:57;2.88;;;1.10;;
41711;SDS011;27399;51.516;13.670;2022-09-09T05:56:26;5.93;;;1.40;;
41711;SDS011;27399;51.516;13.670;2022-09-09T05:58:53;6.63;;;1.33;;
41711;SDS011;27399;51.516;13.670;2022-09-09T06:01:21;3.08;;;1.10;;
41711;SDS011;27399;51.516;13.670;2022-09-09T06:03:49;2.35;;;1.50;;
41711;SDS011;27399;51.516;13.670;2022-09-09T06:06:19;8.80;;;2.30;;
41711;SDS011;27399;51.516;13.670;2022-09-09T06:08:47;4.00;;;1.30;;
41711;SDS011;27399;51.516;13.670;2022-09-09T06:11:17;1.88;;;1.42;;
41711;SDS011;27399;51.516;13.670;2022-09-09T06:13:47;3.50;;;1.50;;
41711;SDS011;27399;51.516;13.670;2022-09-09T06:16:17;4.40;;;1.67;;
41711;SDS011;27399;51.516;13.670;2022-09-09T06:18:44;5.55;;;1.80;;
41711;SDS011;27399;51.516;13.670;2022-09-09T06:21:17;3.65;;;1.60;;
41711;SDS011;27399;51.516;13.670;2022-09-09T06:23:44;7.57;;;1.70;;
41711;SDS011;27399;51.516;13.670;2022-09-09T06:26:15;3.83;;;1.85;;
41711;SDS011;27399;51.516;13.670;2022-09-09T06:28:43;3.83;;;1.77;;
41711;SDS011;27399;51.516;13.670;2022-09-09T06:31:12;6.43;;;1.73;;
41711;SDS011;27399;51.516;13.670;2022-09-09T06:33:39;4.35;;;1.60;;
41711;SDS011;27399;51.516;13.670;2022-09-09T06:36:07;3.90;;;1.70;;
41711;SDS011;27399;51.516;13.670;2022-09-09T06:38:40;4.53;;;1.55;;
41711;SDS011;27399;51.516;13.670;2022-09-09T06:41:07;1.92;;;1.50;;
41711;SDS011;27399;51.516;13.670;2022-09-09T06:43:34;7.07;;;1.52;;
41711;SDS011;27399;51.516;13.670;2022-09-09T06:46:01;3.85;;;1.33;;
41711;SDS011;27399;51.516;13.670;2022-09-09T06:48:28;4.82;;;1.05;;
41711;SDS011;27399;51.516;13.670;2022-09-09T06:51:04;3.38;;;1.75;;
41711;SDS011;27399;51.516;13.670;2022-09-09T06:53:31;4.43;;;1.10;;
41711;SDS011;27399;51.516;13.670;2022-09-09T06:56:02;4.60;;;1.15;;
41711;SDS011;27399;51.516;13.670;2022-09-09T06:58:47;4.97;;;1.27;;
41711;SDS011;27399;51.516;13.670;2022-09-09T07:01:17;5.28;;;1.73;;
41711;SDS011;27399;51.516;13.670;2022-09-09T07:03:45;2.90;;;1.20;;
41711;SDS011;27399;51.516;13.670;2022-09-09T07:06:19;3.75;;;1.33;;
41711;SDS011;27399;51.516;13.670;2022-09-09T07:11:24;8.35;;;1.60;;
41711;SDS011;27399;51.516;13.670;2022-09-09T07:13:52;13.35;;;1.92;;
41711;SDS011;27399;51.516;13.670;2022-09-09T07:16:19;2.33;;;1.20;;
41711;SDS011;27399;51.516;13.670;2022-09-09T07:18:46;3.47;;;1.00;;
41711;SDS011;27399;51.516;13.670;2022-09-09T07:21:12;4.85;;;1.02;;
41711;SDS011;27399;51.516;13.670;2022-09-09T07:23:40;4.05;;;1.50;;
41711;SDS011;27399;51.516;13.670;2022-09-09T07:26:09;8.48;;;1.23;;
41711;SDS011;27399;51.516;13.670;2022-09-09T07:28:38;4.82;;;1.48;;
41711;SDS011;27399;51.516;13.670;2022-09-09T07:31:06;6.57;;;1.38;;
41711;SDS011;27399;51.516;13.670;2022-09-09T07:33:38;8.48;;;1.20;;
41711;SDS011;27399;51.516;13.670;2022-09-09T07:36:07;5.22;;;1.00;;
41711;SDS011;27399;51.516;13.670;2022-09-09T07:38:41;4.20;;;1.30;;
41711;SDS011;27399;51.516;13.670;2022-09-09T07:41:11;3.60;;;1.23;;
41711;SDS011;27399;51.516;13.670;2022-09-09T07:43:39;3.83;;;1.15;;
41711;SDS011;27399;51.516;13.670;2022-09-09T07:46:09;5.60;;;1.38;;
41711;SDS011;27399;51.516;13.670;2022-09-09T07:48:37;2.50;;;1.17;;
41711;SDS011;27399;51.516;13.670;2022-09-09T07:51:11;5.07;;;1.00;;
41711;SDS011;27399;51.516;13.670;2022-09-09T07:53:42;2.85;;;1.00;;
41711;SDS011;27399;51.516;13.670;2022-09-09T07:56:11;5.75;;;1.05;;
41711;SDS011;27399;51.516;13.670;2022-09-09T07:58:39;1.88;;;0.77;;
41711;SDS011;27399;51.516;13.670;2022-09-09T08:01:10;2.60;;;0.80;;
41711;SDS011;27399;51.516;13.670;2022-09-09T08:03:38;4.25;;;1.00;;
41711;SDS011;27399;51.516;13.670;2022-09-09T08:06:05;4.15;;;1.00;;
41711;SDS011;27399;51.516;13.670;2022-09-09T08:08:33;2.97;;;0.60;;
41711;SDS011;27399;51.516;13.670;2022-09-09T08:11:33;5.05;;;0.75;;
41711;SDS011;27399;51.516;13.670;2022-09-09T08:13:53;4.03;;;1.17;;
41711;SDS011;27399;51.516;13.670;2022-09-09T08:16:23;0.80;;;0.55;;
41711;SDS011;27399;51.516;13.670;2022-09-09T08:18:51;2.70;;;0.98;;
41711;SDS011;27399;51.516;13.670;2022-09-09T08:21:19;4.90;;;1.05;;
41711;SDS011;27399;51.516;13.670;2022-09-09T08:23:47;3.42;;;1.00;;
41711;SDS011;27399;51.516;13.670;2022-09-09T08:26:16;3.35;;;1.38;;
41711;SDS011;27399;51.516;13.670;2022-09-09T08:28:47;1.80;;;0.80;;
41711;SDS011;27399;51.516;13.670;2022-09-09T08:31:17;6.22;;;1.00;;
41711;SDS011;27399;51.516;13.670;2022-09-09T08:33:45;2.40;;;0.93;;
41711;SDS011;27399;51.516;13.670;2022-09-09T08:36:12;6.80;;;1.02;;
41711;SDS011;27399;51.516;13.670;2022-09-09T08:38:40;3.90;;;1.00;;
41711;SDS011;27399;51.516;13.670;2022-09-09T08:46:52;1.08;;;0.80;;
41711;SDS011;27399;51.516;13.670;2022-09-09T08:49:49;5.13;;;1.00;;
41711;SDS011;27399;51.516;13.670;2022-09-09T08:57:51;5.82;;;1.30;;
41711;SDS011;27399;51.516;13.670;2022-09-09T09:00:19;5.43;;;1.00;;
41711;SDS011;27399;51.516;13.670;2022-09-09T09:03:00;5.95;;;1.00;;
41711;SDS011;27399;51.516;13.670;2022-09-09T09:05:47;8.60;;;1.52;;
41711;SDS011;27399;51.516;13.670;2022-09-09T09:11:16;2.00;;;0.80;;
41711;SDS011;27399;51.516;13.670;2022-09-09T09:14:02;2.20;;;0.90;;
41711;SDS011;27399;51.516;13.670;2022-09-09T09:19:15;1.25;;;0.98;;
41711;SDS011;27399;51.516;13.670;2022-09-09T09:27:11;3.50;;;0.90;;
41711;SDS011;27399;51.516;13.670;2022-09-09T09:29:43;3.75;;;0.90;;
41711;SDS011;27399;51.516;13.670;2022-09-09T09:32:11;4.30;;;0.70;;
41711;SDS011;27399;51.516;13.670;2022-09-09T09:34:41;4.93;;;0.75;;
41711;SDS011;27399;51.516;13.670;2022-09-09T09:37:15;2.30;;;0.90;;
41711;SDS011;27399;51.516;13.670;2022-09-09T09:39:44;3.20;;;0.73;;
41711;SDS011;27399;51.516;13.670;2022-09-09T09:42:13;3.40;;;1.05;;
41711;SDS011;27399;51.516;13.670;2022-09-09T09:44:42;5.82;;;0.90;;
41711;SDS011;27399;51.516;13.670;2022-09-09T09:47:11;2.65;;;1.10;;
41711;SDS011;27399;51.516;13.670;2022-09-09T09:49:39;4.95;;;1.65;;
41711;SDS011;27399;51.516;13.670;2022-09-09T09:52:15;2.80;;;0.82;;
41711;SDS011;27399;51.516;13.670;2022-09-09T09:54:46;5.40;;;1.10;;
41711;SDS011;27399;51.516;13.670;2022-09-09T09:57:13;5.15;;;1.00;;
41711;SDS011;27399;51.516;13.670;2022-09-09T09:59:40;9.57;;;1.30;;
41711;SDS011;27399;51.516;13.670;2022-09-09T10:04:36;4.78;;;1.40;;
41711;SDS011;27399;51.516;13.670;2022-09-09T10:07:09;6.28;;;1.00;;
41711;SDS011;27399;51.516;13.670;2022-09-09T10:09:43;5.15;;;1.08;;
41711;SDS011;27399;51.516;13.670;2022-09-09T10:12:30;4.05;;;1.00;;
41711;SDS011;27399;51.516;13.670;2022-09-09T10:21:00;2.65;;;0.80;;
41711;SDS011;27399;51.516;13.670;2022-09-09T10:26:32;4.65;;;1.00;;
41711;SDS011;27399;51.516;13.670;2022-09-09T10:37:35;8.30;;;1.38;;
41711;SDS011;27399;51.516;13.670;2022-09-09T10:40:24;3.03;;;0.70;;
41711;SDS011;27399;51.516;13.670;2022-09-09T10:42:54;3.17;;;0.60;;
41711;SDS011;27399;51.516;13.670;2022-09-09T10:48:55;4.07;;;0.60;;
41711;SDS011;27399;51.516;13.670;2022-09-09T10:51:37;3.78;;;0.50;;
41711;SDS011;27399;51.516;13.670;2022-09-09T10:54:17;1.75;;;0.50;;
41711;SDS011;27399;51.516;13.670;2022-09-09T10:56:50;2.03;;;0.50;;
41711;SDS011;27399;51.516;13.670;2022-09-09T10:59:25;1.20;;;0.50;;
41711;SDS011;27399;51.516;13.670;2022-09-09T11:04:43;1.50;;;0.75;;
41711;SDS011;27399;51.516;13.670;2022-09-09T11:07:33;1.17;;;0.40;;
41711;SDS011;27399;51.516;13.670;2022-09-09T11:10:05;10.05;;;1.23;;
41711;SDS011;27399;51.516;13.670;2022-09-09T11:12:39;1.48;;;0.45;;
41711;SDS011;27399;51.516;13.670;2022-09-09T11:15:16;2.05;;;0.68;;
41711;SDS011;27399;51.516;13.670;2022-09-09T11:17:46;1.70;;;0.70;;
41711;SDS011;27399;51.516;13.670;2022-09-09T11:20:25;1.25;;;0.45;;
41711;SDS011;27399;51.516;13.670;2022-09-09T11:22:55;2.63;;;0.68;;
41711;SDS011;27399;51.516;13.670;2022-09-09T11:25:43;1.98;;;0.70;;
41711;SDS011;27399;51.516;13.670;2022-09-09T11:42:15;4.43;;;0.82;;
41711;SDS011;27399;51.516;13.670;2022-09-09T11:44:43;2.78;;;0.80;;
41711;SDS011;27399;51.516;13.670;2022-09-09T11:47:20;5.88;;;1.00;;
41711;SDS011;27399;51.516;13.670;2022-09-09T11:49:51;1.17;;;0.50;;
41711;SDS011;27399;51.516;13.670;2022-09-09T11:52:20;5.05;;;1.42;;
41711;SDS011;27399;51.516;13.670;2022-09-09T11:54:48;4.55;;;1.05;;
41711;SDS011;27399;51.516;13.670;2022-09-09T11:57:25;2.00;;;0.50;;
41711;SDS011;27399;51.516;13.670;2022-09-09T11:59:57;1.77;;;0.80;;
41711;SDS011;27399;51.516;13.670;2022-09-09T12:02:24;2.40;;;0.68;;
41711;SDS011;27399;51.516;13.670;2022-09-09T12:07:47;3.15;;;0.85;;
41711;SDS011;27399;51.516;13.670;2022-09-09T12:12:53;3.33;;;1.10;;
41711;SDS011;27399;51.516;13.670;2022-09-09T12:17:54;4.25;;;1.23;;
41711;SDS011;27399;51.516;13.670;2022-09-09T12:20:35;2.03;;;0.93;;
41711;SDS011;27399;51.516;13.670;2022-09-09T12:34:10;3.10;;;0.70;;
41711;SDS011;27399;51.516;13.670;2022-09-09T12:36:55;2.85;;;0.80;;
41711;SDS011;27399;51.516;13.670;2022-09-09T12:39:35;7.85;;;1.25;;
41711;SDS011;27399;51.516;13.670;2022-09-09T12:42:15;2.10;;;0.73;;
41711;SDS011;27399;51.516;13.670;2022-09-09T12:44:50;4.55;;;0.90;;
41711;SDS011;27399;51.516;13.670;2022-09-09T12:47:20;20.35;;;1.30;;
41711;SDS011;27399;51.516;13.670;2022-09-09T12:49:49;5.53;;;0.88;;
41711;SDS011;27399;51.516;13.670;2022-09-09T12:52:26;3.65;;;1.02;;
41711;SDS011;27399;51.516;13.670;2022-09-09T12:54:55;3.55;;;0.73;;
41711;SDS011;27399;51.516;13.670;2022-09-09T12:57:23;2.90;;;0.85;;
41711;SDS011;27399;51.516;13.670;2022-09-09T12:59:50;4.45;;;1.10;;
41711;SDS011;27399;51.516;13.670;2022-09-09T13:02:21;7.35;;;1.00;;
41711;SDS011;27399;51.516;13.670;2022-09-09T13:04:50;7.72;;;1.15;;
41711;SDS011;27399;51.516;13.670;2022-09-09T13:07:19;3.60;;;0.88;;
41711;SDS011;27399;51.516;13.670;2022-09-09T13:09:47;3.55;;;0.98;;
41711;SDS011;27399;51.516;13.670;2022-09-09T13:12:20;3.25;;;0.80;;
41711;SDS011;27399;51.516;13.670;2022-09-09T13:14:51;0.77;;;0.55;;
41711;SDS011;27399;51.516;13.670;2022-09-09T13:17:20;1.92;;;0.95;;
41711;SDS011;27399;51.516;13.670;2022-09-09T13:19:52;2.83;;;0.70;;
41711;SDS011;27399;51.516;13.670;2022-09-09T13:22:23;3.65;;;0.60;;
41711;SDS011;27399;51.516;13.670;2022-09-09T13:27:51;2.38;;;0.80;;
41711;SDS011;27399;51.516;13.670;2022-09-09T13:30:26;4.50;;;0.88;;
41711;SDS011;27399;51.516;13.670;2022-09-09T13:33:02;1.88;;;0.80;;
41711;SDS011;27399;51.516;13.670;2022-09-09T13:35:30;4.32;;;0.80;;
41711;SDS011;27399;51.516;13.670;2022-09-09T13:37:57;3.40;;;0.95;;
41711;SDS011;27399;51.516;13.670;2022-09-09T13:40:24;5.35;;;1.02;;
41711;SDS011;27399;51.516;13.670;2022-09-09T13:42:56;2.70;;;0.73;;
41711;SDS011;27399;51.516;13.670;2022-09-09T13:45:23;2.25;;;0.70;;
41711;SDS011;27399;51.516;13.670;2022-09-09T13:47:53;2.53;;;1.00;;
41711;SDS011;27399;51.516;13.670;2022-09-09T13:50:27;1.70;;;0.77;;
41711;SDS011;27399;51.516;13.670;2022-09-09T13:52:57;2.40;;;0.85;;
41711;SDS011;27399;51.516;13.670;2022-09-09T13:55:25;3.80;;;0.93;;
41711;SDS011;27399;51.516;13.670;2022-09-09T13:57:53;2.63;;;0.70;;
41711;SDS011;27399;51.516;13.670;2022-09-09T14:00:25;1.25;;;0.60;;
41711;SDS011;27399;51.516;13.670;2022-09-09T14:02:52;5.22;;;0.98;;
41711;SDS011;27399;51.516;13.670;2022-09-09T14:05:20;1.88;;;0.80;;
41711;SDS011;27399;51.516;13.670;2022-09-09T14:07:47;1.30;;;0.73;;
41711;SDS011;27399;51.516;13.670;2022-09-09T14:10:14;1.45;;;0.60;;
41711;SDS011;27399;51.516;13.670;2022-09-09T14:12:40;2.60;;;0.70;;
41711;SDS011;27399;51.516;13.670;2022-09-09T14:15:07;4.35;;;1.00;;
41711;SDS011;27399;51.516;13.670;2022-09-09T14:17:34;4.47;;;1.23;;
41711;SDS011;27399;51.516;13.670;2022-09-09T14:20:01;3.40;;;0.93;;
41711;SDS011;27399;51.516;13.670;2022-09-09T14:22:34;1.77;;;0.60;;
41711;SDS011;27399;51.516;13.670;2022-09-09T14:25:00;1.55;;;0.50;;
41711;SDS011;27399;51.516;13.670;2022-09-09T14:27:26;2.80;;;0.60;;
41711;SDS011;27399;51.516;13.670;2022-09-09T14:29:52;1.92;;;0.90;;
41711;SDS011;27399;51.516;13.670;2022-09-09T14:32:19;4.88;;;0.80;;
41711;SDS011;27399;51.516;13.670;2022-09-09T14:34:46;3.88;;;0.90;;
41711;SDS011;27399;51.516;13.670;2022-09-09T14:37:14;4.80;;;0.88;;
41711;SDS011;27399;51.516;13.670;2022-09-09T14:39:45;3.00;;;0.80;;
41711;SDS011;27399;51.516;13.670;2022-09-09T14:42:12;6.45;;;1.08;;
41711;SDS011;27399;51.516;13.670;2022-09-09T14:44:38;1.83;;;0.75;;
41711;SDS011;27399;51.516;13.670;2022-09-09T14:47:04;2.78;;;1.20;;
41711;SDS011;27399;51.516;13.670;2022-09-09T14:49:30;3.38;;;1.20;;
41711;SDS011;27399;51.516;13.670;2022-09-09T14:51:56;4.05;;;1.23;;
41711;SDS011;27399;51.516;13.670;2022-09-09T14:54:22;2.88;;;1.10;;
41711;SDS011;27399;51.516;13.670;2022-09-09T14:56:48;1.50;;;0.98;;
41711;SDS011;27399;51.516;13.670;2022-09-09T14:59:14;4.28;;;0.80;;
41711;SDS011;27399;51.516;13.670;2022-09-09T15:01:40;1.88;;;0.77;;
41711;SDS011;27399;51.516;13.670;2022-09-09T15:04:06;3.88;;;0.90;;
41711;SDS011;27399;51.516;13.670;2022-09-09T15:06:34;3.08;;;1.10;;
41711;SDS011;27399;51.516;13.670;2022-09-09T15:09:03;5.28;;;1.17;;
41711;SDS011;27399;51.516;13.670;2022-09-09T15:11:30;2.28;;;0.82;;
41711;SDS011;27399;51.516;13.670;2022-09-09T15:13:59;5.47;;;1.17;;
41711;SDS011;27399;51.516;13.670;2022-09-09T15:16:26;8.35;;;1.13;;
41711;SDS011;27399;51.516;13.670;2022-09-09T15:18:54;6.00;;;1.00;;
41711;SDS011;27399;51.516;13.670;2022-09-09T15:21:22;2.70;;;0.80;;
41711;SDS011;27399;51.516;13.670;2022-09-09T15:23:49;2.40;;;0.75;;
41711;SDS011;27399;51.516;13.670;2022-09-09T15:26:16;3.33;;;0.65;;
41711;SDS011;27399;51.516;13.670;2022-09-09T15:28:44;2.90;;;1.25;;
41711;SDS011;27399;51.516;13.670;2022-09-09T15:31:19;7.32;;;1.38;;
41711;SDS011;27399;51.516;13.670;2022-09-09T15:33:49;6.53;;;1.17;;
41711;SDS011;27399;51.516;13.670;2022-09-09T15:36:17;2.75;;;1.08;;
41711;SDS011;27399;51.516;13.670;2022-09-09T15:38:45;3.72;;;0.93;;
41711;SDS011;27399;51.516;13.670;2022-09-09T15:41:12;4.80;;;0.85;;
41711;SDS011;27399;51.516;13.670;2022-09-09T15:43:39;5.38;;;0.98;;
41711;SDS011;27399;51.516;13.670;2022-09-09T15:46:31;4.90;;;0.73;;
41711;SDS011;27399;51.516;13.670;2022-09-09T15:49:03;15.27;;;1.38;;
41711;SDS011;27399;51.516;13.670;2022-09-09T15:52:01;5.07;;;1.00;;
41711;SDS011;27399;51.516;13.670;2022-09-09T15:54:30;6.57;;;1.02;;
41711;SDS011;27399;51.516;13.670;2022-09-09T15:56:58;4.80;;;1.25;;
41711;SDS011;27399;51.516;13.670;2022-09-09T15:59:25;10.02;;;1.30;;
41711;SDS011;27399;51.516;13.670;2022-09-09T16:01:55;8.10;;;1.00;;
41711;SDS011;27399;51.516;13.670;2022-09-09T16:04:22;4.30;;;0.80;;
41711;SDS011;27399;51.516;13.670;2022-09-09T16:06:59;5.07;;;0.80;;
41711;SDS011;27399;51.516;13.670;2022-09-09T16:09:27;6.78;;;1.30;;
41711;SDS011;27399;51.516;13.670;2022-09-09T16:11:57;2.83;;;0.80;;
41711;SDS011;27399;51.516;13.670;2022-09-09T16:14:25;6.53;;;0.95;;
41711;SDS011;27399;51.516;13.670;2022-09-09T16:16:52;3.83;;;1.20;;
41711;SDS011;27399;51.516;13.670;2022-09-09T16:19:18;8.15;;;1.50;;
41711;SDS011;27399;51.516;13.670;2022-09-09T16:21:45;3.95;;;0.77;;
41711;SDS011;27399;51.516;13.670;2022-09-09T16:24:13;3.25;;;0.85;;
41711;SDS011;27399;51.516;13.670;2022-09-09T16:26:43;5.85;;;1.10;;
41711;SDS011;27399;51.516;13.670;2022-09-09T16:29:11;3.50;;;1.23;;
41711;SDS011;27399;51.516;13.670;2022-09-09T16:31:38;6.25;;;0.80;;
41711;SDS011;27399;51.516;13.670;2022-09-09T16:34:05;4.15;;;1.15;;
41711;SDS011;27399;51.516;13.670;2022-09-09T16:36:31;4.68;;;0.77;;
41711;SDS011;27399;51.516;13.670;2022-09-09T16:39:03;7.43;;;1.02;;
41711;SDS011;27399;51.516;13.670;2022-09-09T16:41:30;3.45;;;0.80;;
41711;SDS011;27399;51.516;13.670;2022-09-09T16:43:57;4.10;;;0.90;;
41711;SDS011;27399;51.516;13.670;2022-09-09T16:46:27;6.00;;;1.27;;
41711;SDS011;27399;51.516;13.670;2022-09-09T16:48:55;3.95;;;1.20;;
41711;SDS011;27399;51.516;13.670;2022-09-09T16:51:29;6.78;;;1.65;;
41711;SDS011;27399;51.516;13.670;2022-09-09T16:53:58;11.32;;;1.30;;
41711;SDS011;27399;51.516;13.670;2022-09-09T16:56:25;3.53;;;1.15;;
41711;SDS011;27399;51.516;13.670;2022-09-09T16:58:58;6.13;;;1.20;;
41711;SDS011;27399;51.516;13.670;2022-09-09T17:01:26;17.05;;;3.55;;
41711;SDS011;27399;51.516;13.670;2022-09-09T17:03:57;4.78;;;1.13;;
41711;SDS011;27399;51.516;13.670;2022-09-09T17:06:26;4.43;;;1.70;;